Time;durP1;ratioP1;P1;durP2;ratioP2;P2;SDS_P1;SDS_P2;PMS_P1;PMS_P2;Temp;Humidity;BMP_temperature;BMP_pressure;BME280_temperature;BME280_humidity;BME280_pressure;Samples;Min_cycle;Max_cycle;Signal;HPM_P1;HPM_P2
2023/10/29 00:01:41;;;;;;;12.07;6.30;;;8.20;99.90;;;;;;5065858;28;20715;-59
2023/10/29 00:04:07;;;;;;;10.00;6.37;;;8.20;99.90;;;;;;5066236;28;20206;-58
2023/10/29 00:06:32;;;;;;;15.10;6.93;;;8.20;99.90;;;;;;5063680;28;20786;-58
2023/10/29 00:08:58;;;;;;;11.40;6.30;;;8.10;99.90;;;;;;5064977;28;20630;-58
2023/10/29 00:11:24;;;;;;;10.20;6.10;;;8.10;99.90;;;;;;5063943;28;20206;-59
2023/10/29 00:13:49;;;;;;;16.20;6.83;;;8.10;99.90;;;;;;5063538;28;20742;-59
2023/10/29 00:16:15;;;;;;;8.77;6.27;;;8.10;99.90;;;;;;5059867;28;20193;-59
2023/10/29 00:18:41;;;;;;;13.97;7.33;;;8.00;99.90;;;;;;5064936;28;20178;-59
2023/10/29 00:21:06;;;;;;;9.07;6.00;;;8.00;99.90;;;;;;5064850;28;20660;-58
2023/10/29 00:23:33;;;;;;;12.57;6.60;;;8.00;99.90;;;;;;5060731;28;20192;-59
2023/10/29 00:25:58;;;;;;;11.73;6.43;;;8.00;99.90;;;;;;5066993;28;20695;-59
2023/10/29 00:28:25;;;;;;;9.90;6.70;;;7.90;99.90;;;;;;5070111;28;21176;-59
2023/10/29 00:30:53;;;;;;;8.93;6.43;;;7.90;99.90;;;;;;5069131;28;20664;-59
2023/10/29 00:33:19;;;;;;;8.10;5.53;;;7.90;99.90;;;;;;5065400;28;20448;-59
2023/10/29 00:35:44;;;;;;;9.67;6.70;;;7.90;99.90;;;;;;5065132;28;20454;-59
2023/10/29 00:38:10;;;;;;;11.33;6.70;;;7.90;99.90;;;;;;5069183;28;20166;-58
2023/10/29 00:40:39;;;;;;;7.63;6.03;;;7.90;99.90;;;;;;5066437;28;20240;-58
2023/10/29 00:43:05;;;;;;;12.30;6.40;;;7.80;99.90;;;;;;5066451;28;20167;-59
2023/10/29 00:45:31;;;;;;;8.60;5.87;;;7.80;99.90;;;;;;5067276;28;20424;-59
2023/10/29 00:47:58;;;;;;;11.57;5.30;;;7.80;99.90;;;;;;5066110;28;20175;-59
2023/10/29 00:50:23;;;;;;;10.23;4.87;;;7.80;99.90;;;;;;5065364;28;20458;-58
2023/10/29 00:52:49;;;;;;;9.20;5.27;;;7.70;99.90;;;;;;5069514;28;20663;-60
2023/10/29 00:55:15;;;;;;;9.17;5.90;;;7.70;99.90;;;;;;5067088;28;20181;-58
2023/10/29 00:57:41;;;;;;;13.40;5.87;;;7.70;99.90;;;;;;5065298;28;20206;-59
2023/10/29 01:00:07;;;;;;;14.63;5.37;;;7.60;99.90;;;;;;5067826;28;20437;-59
2023/10/29 01:02:37;;;;;;;9.43;5.97;;;7.60;99.90;;;;;;5063900;28;20476;-59
2023/10/29 01:05:04;;;;;;;6.83;5.20;;;7.60;99.90;;;;;;5068439;28;20413;-59
2023/10/29 01:07:31;;;;;;;7.20;5.87;;;7.60;99.90;;;;;;5078674;28;20578;-59
2023/10/29 01:09:59;;;;;;;9.50;6.40;;;7.50;99.90;;;;;;5068566;28;20444;-59
2023/10/29 01:12:27;;;;;;;9.90;5.73;;;7.50;99.90;;;;;;5065332;28;20457;-58
2023/10/29 01:14:53;;;;;;;11.23;6.10;;;7.50;99.90;;;;;;5065975;28;20405;-59
2023/10/29 01:17:20;;;;;;;10.40;6.00;;;7.40;99.90;;;;;;5063267;28;20428;-59
2023/10/29 01:19:46;;;;;;;9.80;5.47;;;7.40;99.90;;;;;;5066123;28;20166;-59
2023/10/29 01:22:11;;;;;;;8.87;5.87;;;7.40;99.90;;;;;;5068626;28;20424;-58
2023/10/29 01:24:38;;;;;;;8.80;5.70;;;7.40;99.90;;;;;;5066181;28;20167;-59
2023/10/29 01:27:04;;;;;;;8.40;5.00;;;7.30;99.90;;;;;;5067238;28;20185;-59
2023/10/29 01:29:30;;;;;;;8.90;5.20;;;7.30;99.90;;;;;;5068457;28;20983;-59
2023/10/29 01:31:56;;;;;;;10.93;5.40;;;7.30;99.90;;;;;;5067593;28;20182;-59
2023/10/29 01:34:21;;;;;;;11.80;4.80;;;7.30;99.90;;;;;;5062780;28;20459;-59
2023/10/29 01:36:47;;;;;;;10.53;5.13;;;7.20;99.90;;;;;;5068241;28;20193;-59
2023/10/29 01:39:12;;;;;;;5.97;4.80;;;7.20;99.90;;;;;;5067630;28;20640;-59
2023/10/29 01:41:38;;;;;;;7.87;4.73;;;7.20;99.90;;;;;;5060455;28;20206;-59
2023/10/29 01:44:04;;;;;;;8.40;5.13;;;7.20;99.90;;;;;;5067857;28;20744;-59
2023/10/29 01:46:29;;;;;;;7.20;4.57;;;7.20;99.90;;;;;;5067418;28;20178;-59
2023/10/29 01:48:55;;;;;;;9.00;4.30;;;7.20;99.90;;;;;;5067848;28;20186;-58
2023/10/29 01:51:21;;;;;;;4.67;3.83;;;7.20;99.90;;;;;;5064213;28;20194;-58
2023/10/29 01:53:46;;;;;;;11.60;4.30;;;7.20;99.90;;;;;;5065539;28;20198;-58
2023/10/29 01:56:12;;;;;;;10.80;4.00;;;7.20;99.90;;;;;;5060210;28;20556;-58
2023/10/29 01:58:37;;;;;;;9.43;4.30;;;7.20;99.90;;;;;;5068467;28;20174;-58
2023/10/29 02:01:11;;;;;;;9.70;5.27;;;7.20;99.90;;;;;;5067001;28;20224;-57
2023/10/29 02:03:37;;;;;;;8.80;4.43;;;7.20;99.90;;;;;;5064972;28;20186;-58
2023/10/29 02:06:04;;;;;;;8.03;4.47;;;7.20;99.90;;;;;;5067519;28;20416;-59
2023/10/29 02:08:29;;;;;;;6.50;4.47;;;7.20;99.90;;;;;;5061621;28;20432;-58
2023/10/29 02:10:55;;;;;;;8.83;4.20;;;7.20;99.90;;;;;;5064679;28;20448;-59
2023/10/29 02:13:20;;;;;;;6.03;4.43;;;7.20;99.90;;;;;;5066226;28;20198;-58
2023/10/29 02:15:46;;;;;;;6.83;4.03;;;7.20;99.90;;;;;;5066256;28;20162;-58
2023/10/29 02:18:12;;;;;;;6.70;4.13;;;7.20;99.90;;;;;;5065534;28;20303;-58
2023/10/29 02:20:37;;;;;;;8.03;4.57;;;7.20;99.90;;;;;;5065284;28;20519;-58
2023/10/29 02:23:03;;;;;;;7.27;4.80;;;7.20;99.90;;;;;;5062254;28;20533;-59
2023/10/29 02:25:29;;;;;;;9.80;4.70;;;7.20;99.90;;;;;;5063508;28;20200;-59
2023/10/29 02:27:54;;;;;;;6.50;3.90;;;7.20;99.90;;;;;;5061340;28;20167;-58
2023/10/29 02:30:20;;;;;;;8.50;5.13;;;7.20;99.90;;;;;;5059679;28;20182;-59
2023/10/29 02:32:45;;;;;;;6.27;4.20;;;7.10;99.90;;;;;;5065455;28;20221;-58
2023/10/29 02:35:11;;;;;;;7.00;4.30;;;7.10;99.90;;;;;;5063128;28;20170;-57
2023/10/29 02:37:37;;;;;;;7.20;3.63;;;7.10;99.90;;;;;;5062464;28;20178;-58
2023/10/29 02:40:03;;;;;;;8.50;4.23;;;7.10;99.90;;;;;;5066894;28;20186;-59
2023/10/29 02:42:29;;;;;;;9.30;3.80;;;7.10;99.90;;;;;;5065383;28;20221;-59
2023/10/29 02:44:55;;;;;;;5.07;3.47;;;7.10;99.90;;;;;;5063188;28;20884;-59
2023/10/29 02:47:20;;;;;;;10.00;3.87;;;7.10;99.90;;;;;;5064204;28;20182;-60
2023/10/29 02:49:46;;;;;;;8.17;4.00;;;7.00;99.90;;;;;;5066218;28;20903;-58
2023/10/29 02:52:12;;;;;;;5.87;4.53;;;7.00;99.90;;;;;;5064004;28;20693;-58
2023/10/29 02:54:37;;;;;;;8.73;3.70;;;7.00;99.90;;;;;;5065313;28;20254;-59
2023/10/29 02:57:03;;;;;;;6.60;3.97;;;7.00;99.90;;;;;;5067320;28;20245;-59
2023/10/29 02:59:29;;;;;;;7.23;3.83;;;7.00;99.90;;;;;;5064481;28;20174;-58
2023/10/29 03:01:54;;;;;;;8.87;3.80;;;7.00;99.90;;;;;;5060016;28;20441;-59
2023/10/29 03:04:21;;;;;;;5.27;3.87;;;7.00;99.90;;;;;;5059637;28;20178;-58
2023/10/29 03:06:46;;;;;;;12.90;4.90;;;7.00;99.90;;;;;;5064444;28;20170;-58
2023/10/29 03:09:13;;;;;;;9.47;4.47;;;7.00;99.90;;;;;;5066476;28;20939;-58
2023/10/29 03:11:38;;;;;;;5.67;4.20;;;7.00;99.90;;;;;;5061408;28;20194;-59
2023/10/29 03:14:04;;;;;;;8.27;4.90;;;7.00;99.90;;;;;;5064722;28;21178;-57
2023/10/29 03:16:30;;;;;;;11.50;6.10;;;7.00;99.90;;;;;;5067206;28;20453;-58
2023/10/29 03:18:55;;;;;;;12.57;5.23;;;7.00;99.90;;;;;;5066733;28;20653;-58
2023/10/29 03:21:21;;;;;;;7.00;4.30;;;6.90;99.90;;;;;;5061575;28;20282;-58
2023/10/29 03:23:47;;;;;;;6.80;4.30;;;6.90;99.90;;;;;;5061325;28;20193;-59
2023/10/29 03:26:12;;;;;;;9.83;5.13;;;6.90;99.90;;;;;;5068133;28;20170;-58
2023/10/29 03:28:39;;;;;;;7.60;4.70;;;6.90;99.90;;;;;;5066109;28;20205;-59
2023/10/29 03:31:15;;;;;;;6.33;4.57;;;6.90;99.90;;;;;;5065147;28;20198;-59
2023/10/29 03:33:41;;;;;;;5.17;4.27;;;6.90;99.90;;;;;;5063466;28;20445;-59
2023/10/29 03:36:07;;;;;;;6.60;4.10;;;6.80;99.90;;;;;;5066486;28;20444;-59
2023/10/29 03:38:33;;;;;;;8.70;4.50;;;6.80;99.90;;;;;;5064126;28;20437;-59
2023/10/29 03:40:59;;;;;;;9.17;4.23;;;6.80;99.90;;;;;;5064812;28;20445;-59
2023/10/29 03:43:25;;;;;;;6.93;3.53;;;6.70;99.90;;;;;;5067124;28;20740;-58
2023/10/29 03:45:50;;;;;;;10.03;3.67;;;6.70;99.90;;;;;;5065192;28;20177;-59
2023/10/29 03:48:16;;;;;;;4.57;3.03;;;6.60;99.90;;;;;;5059985;28;20175;-58
2023/10/29 03:50:42;;;;;;;10.20;3.23;;;6.60;99.90;;;;;;5061868;28;20183;-59
2023/10/29 03:53:07;;;;;;;6.57;3.20;;;6.60;99.90;;;;;;5065244;28;20198;-59
2023/10/29 03:55:36;;;;;;;14.47;3.23;;;6.50;99.90;;;;;;5064209;28;20436;-58
2023/10/29 03:58:02;;;;;;;5.63;3.87;;;6.50;99.90;;;;;;5066531;28;20634;-59
2023/10/29 04:00:28;;;;;;;5.60;3.57;;;6.50;99.90;;;;;;5067849;28;20558;-59
2023/10/29 04:02:54;;;;;;;13.53;3.60;;;6.50;99.90;;;;;;5050576;28;21129;-59
2023/10/29 04:05:19;;;;;;;5.20;3.33;;;6.50;99.90;;;;;;5066548;28;20444;-59
2023/10/29 04:07:45;;;;;;;3.53;3.23;;;6.50;99.90;;;;;;5068794;28;20286;-58
2023/10/29 04:10:10;;;;;;;3.83;3.47;;;6.50;99.90;;;;;;5067086;28;20186;-58
2023/10/29 04:12:36;;;;;;;6.67;3.70;;;6.50;99.90;;;;;;5068348;28;20202;-58
2023/10/29 04:15:04;;;;;;;4.30;3.70;;;6.50;99.90;;;;;;5067236;28;20263;-59
2023/10/29 04:17:30;;;;;;;4.00;3.60;;;6.50;99.90;;;;;;5069275;28;20192;-61
2023/10/29 04:19:56;;;;;;;9.73;4.23;;;6.50;99.90;;;;;;5067742;28;20438;-59
2023/10/29 04:22:24;;;;;;;6.97;5.13;;;6.50;99.90;;;;;;5066658;28;20444;-59
2023/10/29 04:24:50;;;;;;;8.33;5.17;;;6.40;99.90;;;;;;5066304;28;20170;-58
2023/10/29 04:27:16;;;;;;;5.60;4.50;;;6.40;99.90;;;;;;5069912;28;20506;-59
2023/10/29 04:29:42;;;;;;;8.80;4.63;;;6.40;99.90;;;;;;5069189;28;20416;-59
2023/10/29 04:32:08;;;;;;;5.40;4.70;;;6.40;99.90;;;;;;5069919;28;20202;-59
2023/10/29 04:34:34;;;;;;;6.67;4.60;;;6.30;99.90;;;;;;5066317;28;20208;-59
2023/10/29 04:37:00;;;;;;;6.03;4.00;;;6.30;99.90;;;;;;5069319;28;20515;-59
2023/10/29 04:39:25;;;;;;;13.70;4.07;;;6.30;99.90;;;;;;5069248;28;20189;-59
2023/10/29 04:41:51;;;;;;;11.30;3.60;;;6.30;99.90;;;;;;5067013;28;20668;-59
2023/10/29 04:44:17;;;;;;;13.80;3.93;;;6.20;99.90;;;;;;5067236;28;20257;-58
2023/10/29 04:46:42;;;;;;;6.60;3.63;;;6.20;99.90;;;;;;5067915;28;20190;-59
2023/10/29 04:49:08;;;;;;;6.20;3.60;;;6.20;99.90;;;;;;5062907;28;20170;-59
2023/10/29 04:51:34;;;;;;;4.13;3.27;;;6.20;99.90;;;;;;5063867;28;20226;-58
2023/10/29 04:54:00;;;;;;;4.37;3.40;;;6.20;99.90;;;;;;5068975;28;20202;-59
2023/10/29 04:56:26;;;;;;;4.13;3.20;;;6.10;99.90;;;;;;5063900;28;20186;-60
2023/10/29 04:58:51;;;;;;;6.60;3.40;;;6.10;99.90;;;;;;5061930;28;20258;-58
2023/10/29 05:01:20;;;;;;;6.03;3.23;;;6.10;99.90;;;;;;5063407;28;20546;-58
2023/10/29 05:03:46;;;;;;;4.70;3.10;;;6.10;99.90;;;;;;5066830;28;20178;-58
2023/10/29 05:06:21;;;;;;;5.30;3.53;;;6.10;99.90;;;;;;5063458;28;20826;-59
2023/10/29 05:08:47;;;;;;;4.43;3.20;;;6.00;99.90;;;;;;5064835;28;20201;-58
2023/10/29 05:11:13;;;;;;;3.73;2.70;;;6.00;99.90;;;;;;5068529;28;20464;-58
2023/10/29 05:13:41;;;;;;;7.47;3.53;;;6.00;99.90;;;;;;5069354;28;20202;-58
2023/10/29 05:16:08;;;;;;;5.00;3.10;;;6.00;99.90;;;;;;5063660;28;20422;-59
2023/10/29 05:18:34;;;;;;;7.33;3.20;;;6.00;99.90;;;;;;5066984;28;20556;-59
2023/10/29 05:20:59;;;;;;;4.60;3.70;;;5.90;99.90;;;;;;5065858;28;20527;-59
2023/10/29 05:23:26;;;;;;;4.87;3.30;;;5.90;99.90;;;;;;5068395;28;20632;-58
2023/10/29 05:25:52;;;;;;;3.60;2.70;;;5.90;99.90;;;;;;5069538;28;20193;-58
2023/10/29 05:28:18;;;;;;;6.43;3.20;;;5.80;99.90;;;;;;5068981;28;20413;-59
2023/10/29 05:30:44;;;;;;;9.40;3.60;;;5.80;99.90;;;;;;5060988;28;20436;-58
2023/10/29 05:33:09;;;;;;;7.10;3.73;;;5.80;99.90;;;;;;5064361;28;20210;-58
2023/10/29 05:35:35;;;;;;;6.30;3.20;;;5.80;99.90;;;;;;5066994;28;20183;-59
2023/10/29 05:38:00;;;;;;;4.20;3.50;;;5.70;99.90;;;;;;5064064;28;20270;-58
2023/10/29 05:40:26;;;;;;;4.47;3.00;;;5.70;99.90;;;;;;5060677;28;20218;-59
2023/10/29 05:42:52;;;;;;;7.63;3.33;;;5.70;99.90;;;;;;5065867;28;20198;-59
2023/10/29 05:45:17;;;;;;;7.00;2.90;;;5.70;99.90;;;;;;5065510;28;20183;-58
2023/10/29 05:47:43;;;;;;;4.27;3.50;;;5.70;99.90;;;;;;5068630;28;20217;-58
2023/10/29 05:50:10;;;;;;;6.67;4.13;;;5.60;99.90;;;;;;5061160;28;20174;-59
2023/10/29 05:52:35;;;;;;;3.97;3.53;;;5.60;99.90;;;;;;5067277;28;20198;-58
2023/10/29 05:55:02;;;;;;;5.73;3.30;;;5.60;99.90;;;;;;5064784;28;20435;-58
2023/10/29 05:57:28;;;;;;;7.93;4.90;;;5.60;99.90;;;;;;5063185;28;20248;-58
2023/10/29 05:59:54;;;;;;;6.10;4.57;;;5.60;99.90;;;;;;5057424;28;20837;-58
2023/10/29 06:02:20;;;;;;;5.40;3.83;;;5.60;99.90;;;;;;5058400;28;20446;-58
2023/10/29 06:04:46;;;;;;;6.30;4.63;;;5.50;99.90;;;;;;5066208;28;20166;-58
2023/10/29 06:07:12;;;;;;;5.80;4.00;;;5.50;99.90;;;;;;5057952;28;22243;-58
2023/10/29 06:09:39;;;;;;;5.97;3.90;;;5.60;99.90;;;;;;5067604;28;20421;-58
2023/10/29 06:12:06;;;;;;;13.60;3.77;;;5.50;99.90;;;;;;5065470;28;21029;-59
2023/10/29 06:14:32;;;;;;;7.10;3.53;;;5.60;99.90;;;;;;5066251;28;20467;-59
2023/10/29 06:16:58;;;;;;;7.00;4.10;;;5.60;99.90;;;;;;5064640;28;20432;-58
2023/10/29 06:19:24;;;;;;;7.70;3.63;;;5.60;99.90;;;;;;5065720;28;20409;-58
2023/10/29 06:21:50;;;;;;;10.57;3.63;;;5.70;99.90;;;;;;5059914;28;20560;-59
2023/10/29 06:24:16;;;;;;;5.80;3.73;;;5.70;99.90;;;;;;5061621;28;20440;-58
2023/10/29 06:26:41;;;;;;;4.17;3.60;;;5.70;99.90;;;;;;5063527;28;20961;-59
2023/10/29 06:29:08;;;;;;;8.63;3.63;;;5.70;99.90;;;;;;5062753;28;20182;-59
2023/10/29 06:31:34;;;;;;;7.57;4.53;;;5.80;99.90;;;;;;5066650;28;20195;-59
2023/10/29 06:34:01;;;;;;;10.43;4.30;;;5.80;99.90;;;;;;5064604;28;20460;-60
2023/10/29 06:36:27;;;;;;;7.20;4.33;;;5.80;99.90;;;;;;5061582;28;20428;-59
2023/10/29 06:38:53;;;;;;;10.17;4.27;;;5.90;99.90;;;;;;5061749;28;20452;-60
2023/10/29 06:41:19;;;;;;;6.63;4.30;;;5.90;99.90;;;;;;5062977;28;20194;-59
2023/10/29 06:43:45;;;;;;;6.87;4.37;;;5.90;99.90;;;;;;5060646;28;20209;-59
2023/10/29 06:46:10;;;;;;;6.87;5.10;;;5.90;99.90;;;;;;5063220;28;20259;-59
2023/10/29 06:48:41;;;;;;;6.40;4.37;;;5.90;99.90;;;;;;5067318;28;20167;-58
2023/10/29 06:51:08;;;;;;;4.70;4.10;;;6.00;99.90;;;;;;5063154;28;20198;-58
2023/10/29 06:53:33;;;;;;;5.60;4.30;;;6.00;99.90;;;;;;5062131;28;20468;-59
2023/10/29 06:56:02;;;;;;;9.13;4.17;;;6.00;99.90;;;;;;5065371;28;20433;-58
2023/10/29 06:58:28;;;;;;;4.40;4.00;;;6.00;99.90;;;;;;5064868;28;20182;-58
2023/10/29 07:00:54;;;;;;;6.50;5.20;;;6.00;99.90;;;;;;5061793;28;20437;-58
2023/10/29 07:03:20;;;;;;;6.60;4.93;;;6.10;99.90;;;;;;5062483;28;20641;-58
2023/10/29 07:05:45;;;;;;;7.77;5.20;;;6.10;99.90;;;;;;5066994;28;20185;-59
2023/10/29 07:08:11;;;;;;;5.07;3.93;;;6.10;99.90;;;;;;5065958;28;20178;-59
2023/10/29 07:10:36;;;;;;;6.43;4.53;;;6.20;99.90;;;;;;5064493;28;20219;-59
2023/10/29 07:13:02;;;;;;;4.13;3.73;;;6.20;99.90;;;;;;5066906;28;20660;-58
2023/10/29 07:15:28;;;;;;;4.37;3.90;;;6.20;99.90;;;;;;5066296;28;20258;-59
2023/10/29 07:17:55;;;;;;;7.53;4.33;;;6.30;99.90;;;;;;5063695;28;20504;-58
2023/10/29 07:20:20;;;;;;;13.07;4.33;;;6.30;99.90;;;;;;5064028;28;20162;-58
2023/10/29 07:22:46;;;;;;;8.57;6.50;;;6.40;99.90;;;;;;5065968;28;21010;-57
2023/10/29 07:25:12;;;;;;;18.80;8.90;;;6.40;99.90;;;;;;5059003;28;20171;-59
2023/10/29 07:27:38;;;;;;;13.37;6.53;;;6.50;99.90;;;;;;5060435;28;20166;-58
2023/10/29 07:30:04;;;;;;;7.33;5.80;;;6.60;99.90;;;;;;5059161;28;20562;-59
2023/10/29 07:32:30;;;;;;;10.23;4.57;;;6.60;99.90;;;;;;5063544;28;20471;-58
2023/10/29 07:34:56;;;;;;;5.30;4.30;;;6.70;99.90;;;;;;5063615;28;20425;-58
2023/10/29 07:37:21;;;;;;;5.70;3.77;;;6.70;99.90;;;;;;5059596;28;20185;-58
2023/10/29 07:39:47;;;;;;;8.90;3.80;;;6.80;99.90;;;;;;5058163;28;20202;-58
2023/10/29 07:42:13;;;;;;;6.27;3.83;;;6.80;99.90;;;;;;5060024;28;20222;-59
2023/10/29 07:44:38;;;;;;;3.87;3.20;;;6.90;99.90;;;;;;5054484;28;20202;-59
2023/10/29 07:47:08;;;;;;;8.27;3.93;;;7.00;99.90;;;;;;5059663;28;20166;-58
2023/10/29 07:49:37;;;;;;;4.83;3.80;;;7.00;99.90;;;;;;5059186;28;20209;-58
2023/10/29 07:52:03;;;;;;;4.40;3.90;;;7.10;99.90;;;;;;5064061;28;20444;-59
2023/10/29 07:54:29;;;;;;;4.73;3.37;;;7.10;99.90;;;;;;5063160;28;20456;-59
2023/10/29 07:56:55;;;;;;;4.00;3.60;;;7.20;99.90;;;;;;5060043;28;20821;-59
2023/10/29 07:59:21;;;;;;;5.43;3.10;;;7.20;99.90;;;;;;5058553;28;20234;-58
2023/10/29 08:01:46;;;;;;;4.60;3.73;;;7.30;99.90;;;;;;5063476;28;20225;-58
2023/10/29 08:04:12;;;;;;;7.87;4.60;;;7.40;99.90;;;;;;5060442;28;20925;-58
2023/10/29 08:06:38;;;;;;;7.70;5.43;;;7.40;99.90;;;;;;5060385;28;20174;-58
2023/10/29 08:09:03;;;;;;;6.83;4.00;;;7.50;99.90;;;;;;5064523;28;20187;-58
2023/10/29 08:11:29;;;;;;;4.80;3.87;;;7.50;99.90;;;;;;5061429;28;20285;-58
2023/10/29 08:13:55;;;;;;;12.43;3.80;;;7.60;99.90;;;;;;5063867;28;20675;-58
2023/10/29 08:16:21;;;;;;;4.03;2.90;;;7.60;99.90;;;;;;5059388;28;20419;-59
2023/10/29 08:18:46;;;;;;;7.00;3.73;;;7.60;99.90;;;;;;5061583;28;20467;-58
2023/10/29 08:21:12;;;;;;;4.67;3.80;;;7.70;99.90;;;;;;5062874;28;20203;-59
2023/10/29 08:23:38;;;;;;;7.00;4.03;;;7.80;99.90;;;;;;5060687;28;20251;-58
2023/10/29 08:26:03;;;;;;;4.60;3.50;;;7.90;99.90;;;;;;5062472;28;20183;-58
2023/10/29 08:28:30;;;;;;;5.00;3.80;;;7.90;99.90;;;;;;5056581;28;20174;-59
2023/10/29 08:30:56;;;;;;;4.40;3.27;;;8.00;99.90;;;;;;5063801;28;20182;-60
2023/10/29 08:33:22;;;;;;;5.53;4.03;;;8.10;99.90;;;;;;5064499;28;20494;-59
2023/10/29 08:35:47;;;;;;;3.57;3.10;;;8.10;99.90;;;;;;5059253;28;20189;-59
2023/10/29 08:38:13;;;;;;;4.97;3.50;;;8.20;99.90;;;;;;5064416;28;20175;-59
2023/10/29 08:40:38;;;;;;;4.00;3.10;;;8.30;99.90;;;;;;5061985;28;20237;-59
2023/10/29 08:43:05;;;;;;;5.50;3.37;;;8.30;99.90;;;;;;5061696;28;20863;-59
2023/10/29 08:45:30;;;;;;;5.20;3.67;;;8.40;99.90;;;;;;5065949;28;20636;-59
2023/10/29 08:47:56;;;;;;;3.83;3.27;;;8.60;99.90;;;;;;5068991;28;20529;-59
2023/10/29 08:50:22;;;;;;;3.67;3.07;;;8.60;99.90;;;;;;5065583;28;20182;-58
2023/10/29 08:52:47;;;;;;;6.23;3.50;;;8.70;99.90;;;;;;5065388;28;21092;-58
2023/10/29 08:55:13;;;;;;;5.23;3.63;;;8.80;99.90;;;;;;5065119;28;20245;-59
2023/10/29 08:57:38;;;;;;;5.90;3.30;;;8.80;99.90;;;;;;5066386;28;20198;-58
2023/10/29 09:00:05;;;;;;;6.40;3.73;;;8.90;99.90;;;;;;5065349;28;20195;-59
2023/10/29 09:02:30;;;;;;;6.50;3.80;;;9.00;99.90;;;;;;5064243;28;20432;-59
2023/10/29 09:04:57;;;;;;;6.50;3.73;;;9.10;99.90;;;;;;5065744;28;20937;-59
2023/10/29 09:07:25;;;;;;;11.10;5.20;;;9.20;99.90;;;;;;5068852;28;20173;-58
2023/10/29 09:09:52;;;;;;;6.83;4.20;;;9.20;99.90;;;;;;5068371;28;20431;-58
2023/10/29 09:12:18;;;;;;;8.03;4.63;;;9.30;99.90;;;;;;5068081;28;20510;-58
2023/10/29 09:14:43;;;;;;;9.93;4.03;;;9.40;99.90;;;;;;5065828;28;20457;-58
2023/10/29 09:17:10;;;;;;;5.73;4.10;;;9.50;99.90;;;;;;5069753;28;20572;-58
2023/10/29 09:19:35;;;;;;;8.10;4.10;;;9.60;99.90;;;;;;5062140;28;20313;-58
2023/10/29 09:22:01;;;;;;;11.00;4.77;;;9.70;99.90;;;;;;5066707;28;20994;-59
2023/10/29 09:24:27;;;;;;;8.00;4.80;;;9.70;99.90;;;;;;5069126;28;20178;-58
2023/10/29 09:26:53;;;;;;;11.70;4.97;;;9.80;99.90;;;;;;5068036;28;20181;-58
2023/10/29 09:29:19;;;;;;;8.00;4.60;;;9.90;99.90;;;;;;5065660;28;20175;-58
2023/10/29 09:31:45;;;;;;;7.37;5.13;;;9.90;99.90;;;;;;5067443;28;20439;-58
2023/10/29 09:34:11;;;;;;;10.43;4.40;;;10.00;99.90;;;;;;5068602;28;20282;-58
2023/10/29 09:36:37;;;;;;;7.57;4.40;;;10.10;99.90;;;;;;5064556;28;20661;-59
2023/10/29 09:39:03;;;;;;;10.13;6.57;;;10.10;99.90;;;;;;5069844;28;20428;-58
2023/10/29 09:41:31;;;;;;;22.33;9.13;;;10.20;99.90;;;;;;5067910;28;20420;-59
2023/10/29 09:43:58;;;;;;;12.93;6.60;;;10.20;99.90;;;;;;5060378;28;20434;-59
2023/10/29 09:46:24;;;;;;;12.10;5.97;;;10.20;99.90;;;;;;5064229;28;20433;-59
2023/10/29 09:48:52;;;;;;;8.97;5.17;;;10.30;99.90;;;;;;5063474;28;20433;-59
2023/10/29 09:51:20;;;;;;;9.77;5.60;;;10.30;99.90;;;;;;5053613;28;20194;-58
2023/10/29 09:53:46;;;;;;;8.33;4.67;;;10.40;99.90;;;;;;5063637;28;20543;-59
2023/10/29 09:56:14;;;;;;;7.20;3.60;;;10.50;99.90;;;;;;5067182;28;20515;-59
2023/10/29 09:58:41;;;;;;;6.60;3.57;;;10.50;99.90;;;;;;5066500;28;20178;-60
2023/10/29 10:01:08;;;;;;;5.20;3.90;;;10.50;99.90;;;;;;5064921;28;20443;-59
2023/10/29 10:03:33;;;;;;;6.20;4.10;;;10.60;99.90;;;;;;5066607;28;20507;-59
2023/10/29 10:06:00;;;;;;;4.73;3.70;;;10.60;99.90;;;;;;5061813;28;20523;-59
2023/10/29 10:08:30;;;;;;;5.60;4.30;;;10.70;99.90;;;;;;5064685;28;20170;-59
2023/10/29 10:10:56;;;;;;;6.73;4.60;;;10.70;99.90;;;;;;5052664;28;20448;-60
2023/10/29 10:13:41;;;;;;;4.97;3.90;;;10.80;99.90;;;;;;5057064;28;20448;-59
2023/10/29 10:16:14;;;;;;;5.90;3.77;;;10.90;99.90;;;;;;5062965;28;20417;-59
2023/10/29 10:18:59;;;;;;;7.00;4.63;;;11.00;99.90;;;;;;5064288;28;20417;-59
2023/10/29 10:21:39;;;;;;;5.10;4.17;;;11.10;99.90;;;;;;5065277;28;20490;-59
2023/10/29 10:24:06;;;;;;;5.07;4.07;;;11.20;99.90;;;;;;5063976;28;20417;-58
2023/10/29 10:26:37;;;;;;;11.27;4.20;;;11.30;99.90;;;;;;5061398;28;20436;-58
2023/10/29 10:29:07;;;;;;;6.57;4.23;;;11.40;99.90;;;;;;5064433;28;20424;-59
2023/10/29 10:31:35;;;;;;;6.73;3.90;;;11.50;99.90;;;;;;5064174;28;21150;-59
2023/10/29 10:34:17;;;;;;;8.30;3.97;;;11.70;99.90;;;;;;5066535;28;20464;-59
2023/10/29 10:36:44;;;;;;;4.50;3.47;;;11.80;99.90;;;;;;5064418;28;20772;-60
2023/10/29 10:39:11;;;;;;;9.57;3.33;;;11.90;99.90;;;;;;5066205;28;20432;-59
2023/10/29 10:41:43;;;;;;;6.43;4.47;;;12.10;99.90;;;;;;5061950;28;20528;-60
2023/10/29 10:44:14;;;;;;;11.10;4.53;;;12.20;99.90;;;;;;5062827;28;20421;-60
2023/10/29 10:46:48;;;;;;;10.50;3.70;;;12.30;99.90;;;;;;5064166;28;20933;-59
2023/10/29 10:49:15;;;;;;;5.27;3.20;;;12.40;99.90;;;;;;5066636;28;20921;-59
2023/10/29 10:51:41;;;;;;;5.70;3.40;;;12.40;99.90;;;;;;5059656;28;20475;-59
2023/10/29 10:54:07;;;;;;;6.53;3.10;;;12.50;99.90;;;;;;5066285;28;20460;-59
2023/10/29 10:56:37;;;;;;;5.30;2.97;;;12.70;99.90;;;;;;5063953;28;21095;-59
2023/10/29 10:59:07;;;;;;;3.23;2.47;;;12.80;99.90;;;;;;5064605;28;20841;-58
2023/10/29 11:01:35;;;;;;;3.60;1.80;;;12.90;99.90;;;;;;5061648;28;20447;-60
2023/10/29 11:04:03;;;;;;;4.30;2.50;;;13.00;99.90;;;;;;5066299;28;20409;-59
2023/10/29 11:06:29;;;;;;;6.20;2.30;;;13.00;99.90;;;;;;5063104;28;20453;-59
2023/10/29 11:08:55;;;;;;;2.80;2.60;;;13.10;99.90;;;;;;5062396;28;20439;-59
2023/10/29 11:11:24;;;;;;;4.10;2.47;;;13.10;99.90;;;;;;5062811;28;20449;-59
2023/10/29 11:13:50;;;;;;;3.63;2.40;;;13.10;99.90;;;;;;5066860;28;20482;-59
2023/10/29 11:16:25;;;;;;;3.73;2.33;;;13.10;99.90;;;;;;5060132;28;20495;-60
2023/10/29 11:18:51;;;;;;;6.00;2.77;;;13.10;99.90;;;;;;5065706;28;20415;-60
2023/10/29 11:21:36;;;;;;;5.17;2.50;;;13.10;98.30;;;;;;5064322;28;20433;-58
2023/10/29 11:24:17;;;;;;;4.00;2.30;;;13.00;97.70;;;;;;5065430;28;20641;-59
2023/10/29 11:26:43;;;;;;;5.30;2.57;;;13.10;96.30;;;;;;5065695;28;20755;-58
2023/10/29 11:29:09;;;;;;;4.73;2.90;;;13.10;95.40;;;;;;5067216;28;20416;-59
2023/10/29 11:31:35;;;;;;;4.97;3.17;;;13.30;96.30;;;;;;5065930;28;20561;-59
2023/10/29 11:34:00;;;;;;;4.30;3.00;;;13.60;96.50;;;;;;5059508;28;20474;-59
2023/10/29 11:36:34;;;;;;;4.43;2.80;;;13.90;96.90;;;;;;5061467;28;20851;-60
2023/10/29 11:39:15;;;;;;;5.70;2.93;;;14.30;95.20;;;;;;5064353;28;20865;-59
2023/10/29 11:41:44;;;;;;;4.43;3.10;;;14.60;90.40;;;;;;5064643;28;20444;-59
2023/10/29 11:44:22;;;;;;;3.67;2.97;;;14.70;85.10;;;;;;5061605;28;20424;-58
2023/10/29 11:47:08;;;;;;;23.10;3.70;;;14.60;82.40;;;;;;5060517;28;20497;-59
2023/10/29 11:49:46;;;;;;;3.90;2.90;;;14.50;82.30;;;;;;5060926;28;20508;-58
2023/10/29 11:52:12;;;;;;;3.33;2.43;;;14.30;84.20;;;;;;5056409;28;20440;-59
2023/10/29 11:54:38;;;;;;;4.03;2.13;;;14.20;83.40;;;;;;5059670;28;20466;-57
2023/10/29 11:57:08;;;;;;;11.37;2.83;;;14.10;82.50;;;;;;5062786;28;20976;-57
2023/10/29 11:59:33;;;;;;;6.67;2.47;;;14.10;88.70;;;;;;5055577;28;20433;-58
2023/10/29 12:01:59;;;;;;;5.97;2.50;;;14.10;93.20;;;;;;5060436;28;20452;-60
2023/10/29 12:04:31;;;;;;;2.80;2.00;;;14.10;90.80;;;;;;5063334;28;20690;-57
2023/10/29 12:06:57;;;;;;;2.47;2.00;;;14.20;82.70;;;;;;5061962;28;20181;-57
2023/10/29 12:09:24;;;;;;;2.20;1.90;;;14.20;79.40;;;;;;5054383;28;20441;-60
2023/10/29 12:11:52;;;;;;;6.10;2.03;;;14.30;80.60;;;;;;5061938;28;20186;-59
2023/10/29 12:14:39;;;;;;;3.97;2.70;;;14.40;79.30;;;;;;5062408;28;20456;-59
2023/10/29 12:17:06;;;;;;;2.37;1.83;;;14.40;75.50;;;;;;5058362;28;20509;-60
2023/10/29 12:19:39;;;;;;;3.93;2.20;;;14.50;78.50;;;;;;5059424;28;20423;-59
2023/10/29 12:22:13;;;;;;;4.43;2.27;;;14.60;83.70;;;;;;5057949;28;20480;-60
2023/10/29 12:24:39;;;;;;;3.00;2.00;;;14.80;85.20;;;;;;5062341;28;20427;-60
2023/10/29 12:27:05;;;;;;;2.40;1.90;;;15.10;81.60;;;;;;5060419;28;20440;-59
2023/10/29 12:29:30;;;;;;;8.03;2.23;;;15.30;76.30;;;;;;5064555;28;20181;-58
2023/10/29 12:31:56;;;;;;;10.43;2.20;;;15.40;75.90;;;;;;5059524;28;20703;-60
2023/10/29 12:34:22;;;;;;;2.70;1.80;;;15.50;77.40;;;;;;5067313;28;20210;-59
2023/10/29 12:36:51;;;;;;;3.73;2.10;;;15.50;77.70;;;;;;5062305;28;20174;-59
2023/10/29 12:39:17;;;;;;;6.43;1.93;;;15.60;75.00;;;;;;5060913;28;20194;-59
2023/10/29 12:41:51;;;;;;;2.40;1.80;;;15.60;73.30;;;;;;5059426;28;20448;-59
2023/10/29 12:44:17;;;;;;;4.27;2.07;;;15.60;71.80;;;;;;5061748;28;20538;-59
2023/10/29 12:46:49;;;;;;;4.33;1.83;;;15.60;71.80;;;;;;5058196;28;21175;-60
2023/10/29 12:49:22;;;;;;;1.87;1.67;;;15.60;69.60;;;;;;5066579;28;20174;-59
2023/10/29 12:51:52;;;;;;;6.53;1.73;;;15.50;69.30;;;;;;5063287;28;20483;-61